Maxwell Air Force Base Montgomery US
ICAO: KMXF
IATA: MXF
Category: Medium
Scheduled Services: No

Elevation: 171 ft
TransAlt. 18000 ft.

Airport Communications:
MONTGOMERY APP/DEP:121.2
ATIS:134.7
GND:127.15
PMSV METRO:34.23
42 ABW COMD POST:23.46
AFRC 908AW COMD POST:39.69
PTD:122.85
TWR:118.15

KMXF Zoom In..

If you have problems with the map follow the link
https://www.worldairports.se/pages/airport.php?
ICAO=KMXF

Runways:

(A) RW 15 length 8013 ft width 150 ft
ILS 109.30 / hdg 149

(B) RW 33 length 8013 ft width 150 ft
---- / hdg 329

Location; KMXF
Day. 11 / Time. 12.56 Zulu
* Altimeter: 30.00
* Temperature: OB° c. 32°f.
* Wind from: 350° Speed 09 kn.
Dewpoint: /N° c.
Visibility: 10 Statute Miles.
Clouds: Few 300 ft.
Clouds: Scattered 4500 ft.
Clouds: Overcast 5600 ft.

KMXF 111256Z AUTO 35009KT 10SM CLR 04/00 A3042 RMK AO2 SLP305 T00370002


Wind From 350°
Speed 09 kn.

 
 
jpsmedia worldairports.se 2019   terms of use